sensor_id;sensor_type;location;lat;lon;timestamp;P1;durP1;ratioP1;P2;durP2;ratioP2
57317;SDS011;43157;50.982;18.132;2022-09-09T00:03:51;10.80;;;4.90;;
57317;SDS011;43157;50.982;18.132;2022-09-09T00:06:23;11.10;;;4.50;;
57317;SDS011;43157;50.982;18.132;2022-09-09T00:08:58;9.90;;;4.10;;
57317;SDS011;43157;50.982;18.132;2022-09-09T00:14:13;12.70;;;5.60;;
57317;SDS011;43157;50.982;18.132;2022-09-09T00:16:56;11.00;;;4.30;;
57317;SDS011;43157;50.982;18.132;2022-09-09T00:22:22;14.80;;;5.60;;
57317;SDS011;43157;50.982;18.132;2022-09-09T00:24:52;11.00;;;5.10;;
57317;SDS011;43157;50.982;18.132;2022-09-09T00:27:21;15.10;;;5.60;;
57317;SDS011;43157;50.982;18.132;2022-09-09T00:30:13;14.60;;;6.20;;
57317;SDS011;43157;50.982;18.132;2022-09-09T00:32:40;17.00;;;6.80;;
57317;SDS011;43157;50.982;18.132;2022-09-09T00:37:44;16.20;;;7.10;;
57317;SDS011;43157;50.982;18.132;2022-09-09T00:40:22;15.60;;;7.00;;
57317;SDS011;43157;50.982;18.132;2022-09-09T00:42:54;14.40;;;6.90;;
57317;SDS011;43157;50.982;18.132;2022-09-09T00:48:31;13.90;;;7.40;;
57317;SDS011;43157;50.982;18.132;2022-09-09T00:51:09;16.90;;;8.10;;
57317;SDS011;43157;50.982;18.132;2022-09-09T00:56:45;16.70;;;8.50;;
57317;SDS011;43157;50.982;18.132;2022-09-09T00:59:21;18.60;;;8.10;;
57317;SDS011;43157;50.982;18.132;2022-09-09T01:01:54;17.90;;;8.70;;
57317;SDS011;43157;50.982;18.132;2022-09-09T01:04:24;19.90;;;8.60;;
57317;SDS011;43157;50.982;18.132;2022-09-09T01:06:58;18.80;;;8.60;;
57317;SDS011;43157;50.982;18.132;2022-09-09T01:09:32;21.20;;;8.70;;
57317;SDS011;43157;50.982;18.132;2022-09-09T01:17:31;20.20;;;9.70;;
57317;SDS011;43157;50.982;18.132;2022-09-09T01:22:48;20.90;;;9.50;;
57317;SDS011;43157;50.982;18.132;2022-09-09T01:28:23;21.30;;;10.30;;
57317;SDS011;43157;50.982;18.132;2022-09-09T01:30:51;22.30;;;10.00;;
57317;SDS011;43157;50.982;18.132;2022-09-09T01:33:17;22.60;;;10.70;;
57317;SDS011;43157;50.982;18.132;2022-09-09T01:35:45;24.20;;;11.10;;
57317;SDS011;43157;50.982;18.132;2022-09-09T01:38:16;23.70;;;11.70;;
57317;SDS011;43157;50.982;18.132;2022-09-09T01:40:42;24.10;;;12.30;;
57317;SDS011;43157;50.982;18.132;2022-09-09T01:43:08;24.90;;;11.60;;
57317;SDS011;43157;50.982;18.132;2022-09-09T01:45:34;24.00;;;12.00;;
57317;SDS011;43157;50.982;18.132;2022-09-09T01:48:00;25.50;;;12.20;;
57317;SDS011;43157;50.982;18.132;2022-09-09T01:50:27;24.60;;;12.50;;
57317;SDS011;43157;50.982;18.132;2022-09-09T01:52:53;27.60;;;12.50;;
57317;SDS011;43157;50.982;18.132;2022-09-09T01:58:21;22.90;;;11.50;;
57317;SDS011;43157;50.982;18.132;2022-09-09T02:01:04;21.10;;;10.80;;
57317;SDS011;43157;50.982;18.132;2022-09-09T02:03:35;23.60;;;11.20;;
57317;SDS011;43157;50.982;18.132;2022-09-09T02:08:56;23.10;;;11.80;;
57317;SDS011;43157;50.982;18.132;2022-09-09T02:11:23;29.10;;;11.50;;
57317;SDS011;43157;50.982;18.132;2022-09-09T02:13:58;19.60;;;9.90;;
57317;SDS011;43157;50.982;18.132;2022-09-09T02:19:09;22.60;;;10.50;;
57317;SDS011;43157;50.982;18.132;2022-09-09T02:21:38;24.40;;;11.00;;
57317;SDS011;43157;50.982;18.132;2022-09-09T02:24:05;24.40;;;11.00;;
57317;SDS011;43157;50.982;18.132;2022-09-09T02:26:37;20.80;;;10.20;;
57317;SDS011;43157;50.982;18.132;2022-09-09T02:29:08;21.30;;;11.60;;
57317;SDS011;43157;50.982;18.132;2022-09-09T02:31:38;25.50;;;12.10;;
57317;SDS011;43157;50.982;18.132;2022-09-09T02:34:05;21.50;;;11.40;;
57317;SDS011;43157;50.982;18.132;2022-09-09T02:36:34;21.60;;;11.40;;
57317;SDS011;43157;50.982;18.132;2022-09-09T02:39:00;20.90;;;11.00;;
57317;SDS011;43157;50.982;18.132;2022-09-09T02:41:28;20.20;;;10.40;;
57317;SDS011;43157;50.982;18.132;2022-09-09T02:43:57;20.30;;;10.90;;
57317;SDS011;43157;50.982;18.132;2022-09-09T02:49:17;21.40;;;11.20;;
57317;SDS011;43157;50.982;18.132;2022-09-09T02:52:06;19.70;;;9.90;;
57317;SDS011;43157;50.982;18.132;2022-09-09T02:54:34;20.30;;;10.50;;
57317;SDS011;43157;50.982;18.132;2022-09-09T02:59:37;20.20;;;10.60;;
57317;SDS011;43157;50.982;18.132;2022-09-09T03:02:04;18.00;;;9.90;;
57317;SDS011;43157;50.982;18.132;2022-09-09T03:04:30;15.60;;;9.00;;
57317;SDS011;43157;50.982;18.132;2022-09-09T03:06:57;20.80;;;10.80;;
57317;SDS011;43157;50.982;18.132;2022-09-09T03:09:23;17.50;;;9.90;;
57317;SDS011;43157;50.982;18.132;2022-09-09T03:11:49;18.70;;;10.50;;
57317;SDS011;43157;50.982;18.132;2022-09-09T03:14:15;18.40;;;10.80;;
57317;SDS011;43157;50.982;18.132;2022-09-09T03:16:41;18.50;;;10.70;;
57317;SDS011;43157;50.982;18.132;2022-09-09T03:19:08;23.00;;;11.70;;
57317;SDS011;43157;50.982;18.132;2022-09-09T03:21:34;17.60;;;9.70;;
57317;SDS011;43157;50.982;18.132;2022-09-09T03:24:01;18.80;;;10.20;;
57317;SDS011;43157;50.982;18.132;2022-09-09T03:26:29;17.50;;;10.30;;
57317;SDS011;43157;50.982;18.132;2022-09-09T03:28:55;16.70;;;9.40;;
57317;SDS011;43157;50.982;18.132;2022-09-09T03:31:21;18.60;;;10.30;;
57317;SDS011;43157;50.982;18.132;2022-09-09T03:33:47;17.80;;;10.70;;
57317;SDS011;43157;50.982;18.132;2022-09-09T03:36:13;18.00;;;9.80;;
57317;SDS011;43157;50.982;18.132;2022-09-09T03:38:40;18.80;;;10.40;;
57317;SDS011;43157;50.982;18.132;2022-09-09T03:41:06;16.50;;;9.60;;
57317;SDS011;43157;50.982;18.132;2022-09-09T03:43:32;17.90;;;10.30;;
57317;SDS011;43157;50.982;18.132;2022-09-09T03:45:58;17.60;;;10.30;;
57317;SDS011;43157;50.982;18.132;2022-09-09T03:48:24;20.70;;;10.60;;
57317;SDS011;43157;50.982;18.132;2022-09-09T03:50:51;18.30;;;10.30;;
57317;SDS011;43157;50.982;18.132;2022-09-09T03:53:19;19.50;;;10.70;;
57317;SDS011;43157;50.982;18.132;2022-09-09T03:55:46;16.80;;;10.10;;
57317;SDS011;43157;50.982;18.132;2022-09-09T03:58:13;17.70;;;11.20;;
57317;SDS011;43157;50.982;18.132;2022-09-09T04:00:39;16.80;;;10.10;;
57317;SDS011;43157;50.982;18.132;2022-09-09T04:03:08;18.10;;;10.40;;
57317;SDS011;43157;50.982;18.132;2022-09-09T04:05:35;17.20;;;10.30;;
57317;SDS011;43157;50.982;18.132;2022-09-09T04:08:05;19.00;;;9.90;;
57317;SDS011;43157;50.982;18.132;2022-09-09T04:10:32;16.00;;;10.10;;
57317;SDS011;43157;50.982;18.132;2022-09-09T04:12:58;14.10;;;9.50;;
57317;SDS011;43157;50.982;18.132;2022-09-09T04:15:25;14.70;;;9.00;;
57317;SDS011;43157;50.982;18.132;2022-09-09T04:17:50;17.30;;;9.80;;
57317;SDS011;43157;50.982;18.132;2022-09-09T04:20:16;16.30;;;9.60;;
57317;SDS011;43157;50.982;18.132;2022-09-09T04:22:42;15.40;;;9.10;;
57317;SDS011;43157;50.982;18.132;2022-09-09T04:25:07;19.20;;;9.80;;
57317;SDS011;43157;50.982;18.132;2022-09-09T04:27:40;16.20;;;9.70;;
57317;SDS011;43157;50.982;18.132;2022-09-09T04:30:06;16.10;;;9.10;;
57317;SDS011;43157;50.982;18.132;2022-09-09T04:32:33;16.30;;;9.00;;
57317;SDS011;43157;50.982;18.132;2022-09-09T04:34:59;13.80;;;8.70;;
57317;SDS011;43157;50.982;18.132;2022-09-09T04:37:25;15.30;;;10.00;;
57317;SDS011;43157;50.982;18.132;2022-09-09T04:39:51;14.00;;;9.10;;
57317;SDS011;43157;50.982;18.132;2022-09-09T04:42:16;18.30;;;10.10;;
57317;SDS011;43157;50.982;18.132;2022-09-09T04:44:44;18.90;;;9.00;;
57317;SDS011;43157;50.982;18.132;2022-09-09T04:47:10;19.30;;;9.70;;
57317;SDS011;43157;50.982;18.132;2022-09-09T04:49:36;16.40;;;9.50;;
57317;SDS011;43157;50.982;18.132;2022-09-09T04:52:02;15.10;;;9.60;;
57317;SDS011;43157;50.982;18.132;2022-09-09T04:54:29;15.90;;;9.80;;
57317;SDS011;43157;50.982;18.132;2022-09-09T04:56:55;15.20;;;10.10;;
57317;SDS011;43157;50.982;18.132;2022-09-09T04:59:21;18.10;;;10.00;;
57317;SDS011;43157;50.982;18.132;2022-09-09T05:01:47;14.80;;;9.10;;
57317;SDS011;43157;50.982;18.132;2022-09-09T05:04:14;17.00;;;9.70;;
57317;SDS011;43157;50.982;18.132;2022-09-09T05:06:42;15.80;;;9.80;;
57317;SDS011;43157;50.982;18.132;2022-09-09T05:09:08;14.60;;;8.90;;
57317;SDS011;43157;50.982;18.132;2022-09-09T05:11:34;16.00;;;10.30;;
57317;SDS011;43157;50.982;18.132;2022-09-09T05:14:02;19.10;;;10.40;;
57317;SDS011;43157;50.982;18.132;2022-09-09T05:16:28;15.70;;;8.70;;
57317;SDS011;43157;50.982;18.132;2022-09-09T05:18:54;16.00;;;9.60;;
57317;SDS011;43157;50.982;18.132;2022-09-09T05:21:20;16.80;;;9.40;;
57317;SDS011;43157;50.982;18.132;2022-09-09T05:23:46;14.10;;;9.20;;
57317;SDS011;43157;50.982;18.132;2022-09-09T05:26:13;16.90;;;8.10;;
57317;SDS011;43157;50.982;18.132;2022-09-09T05:28:43;13.50;;;8.90;;
57317;SDS011;43157;50.982;18.132;2022-09-09T05:31:09;17.00;;;9.30;;
57317;SDS011;43157;50.982;18.132;2022-09-09T05:33:39;13.80;;;8.40;;
57317;SDS011;43157;50.982;18.132;2022-09-09T05:36:07;14.00;;;8.50;;
57317;SDS011;43157;50.982;18.132;2022-09-09T05:38:34;14.30;;;8.50;;
57317;SDS011;43157;50.982;18.132;2022-09-09T05:41:00;12.20;;;7.30;;
57317;SDS011;43157;50.982;18.132;2022-09-09T05:43:29;11.20;;;6.90;;
57317;SDS011;43157;50.982;18.132;2022-09-09T05:48:47;12.10;;;7.30;;
57317;SDS011;43157;50.982;18.132;2022-09-09T05:51:16;12.30;;;7.60;;
57317;SDS011;43157;50.982;18.132;2022-09-09T05:53:43;11.70;;;7.20;;
57317;SDS011;43157;50.982;18.132;2022-09-09T05:56:11;15.00;;;7.50;;
57317;SDS011;43157;50.982;18.132;2022-09-09T05:58:44;14.60;;;7.30;;
57317;SDS011;43157;50.982;18.132;2022-09-09T06:01:13;12.40;;;6.80;;
57317;SDS011;43157;50.982;18.132;2022-09-09T06:03:41;11.50;;;7.30;;
57317;SDS011;43157;50.982;18.132;2022-09-09T06:06:08;12.10;;;6.50;;
57317;SDS011;43157;50.982;18.132;2022-09-09T06:08:38;12.20;;;6.50;;
57317;SDS011;43157;50.982;18.132;2022-09-09T06:11:06;11.40;;;6.20;;
57317;SDS011;43157;50.982;18.132;2022-09-09T06:13:42;10.80;;;6.00;;
57317;SDS011;43157;50.982;18.132;2022-09-09T06:16:11;11.40;;;6.30;;
57317;SDS011;43157;50.982;18.132;2022-09-09T06:18:38;11.30;;;6.40;;
57317;SDS011;43157;50.982;18.132;2022-09-09T06:21:05;12.00;;;5.90;;
57317;SDS011;43157;50.982;18.132;2022-09-09T06:23:33;12.30;;;6.00;;
57317;SDS011;43157;50.982;18.132;2022-09-09T06:26:10;13.90;;;5.90;;
57317;SDS011;43157;50.982;18.132;2022-09-09T06:28:37;11.30;;;5.40;;
57317;SDS011;43157;50.982;18.132;2022-09-09T06:31:07;11.30;;;5.70;;
57317;SDS011;43157;50.982;18.132;2022-09-09T06:33:34;12.90;;;6.10;;
57317;SDS011;43157;50.982;18.132;2022-09-09T06:36:03;9.80;;;5.70;;
57317;SDS011;43157;50.982;18.132;2022-09-09T06:38:29;9.50;;;5.40;;
57317;SDS011;43157;50.982;18.132;2022-09-09T06:40:55;12.20;;;6.00;;
57317;SDS011;43157;50.982;18.132;2022-09-09T06:43:23;11.90;;;5.50;;
57317;SDS011;43157;50.982;18.132;2022-09-09T06:46:03;8.80;;;4.60;;
57317;SDS011;43157;50.982;18.132;2022-09-09T06:48:33;9.20;;;5.10;;
57317;SDS011;43157;50.982;18.132;2022-09-09T06:51:08;9.00;;;5.30;;
57317;SDS011;43157;50.982;18.132;2022-09-09T06:53:38;9.20;;;5.00;;
57317;SDS011;43157;50.982;18.132;2022-09-09T06:58:40;9.50;;;5.00;;
57317;SDS011;43157;50.982;18.132;2022-09-09T07:01:16;6.50;;;3.50;;
57317;SDS011;43157;50.982;18.132;2022-09-09T07:03:45;9.20;;;3.70;;
57317;SDS011;43157;50.982;18.132;2022-09-09T07:06:13;8.60;;;4.40;;
57317;SDS011;43157;50.982;18.132;2022-09-09T07:08:40;10.30;;;5.00;;
57317;SDS011;43157;50.982;18.132;2022-09-09T07:11:09;8.40;;;4.30;;
57317;SDS011;43157;50.982;18.132;2022-09-09T07:13:36;9.00;;;4.40;;
57317;SDS011;43157;50.982;18.132;2022-09-09T07:16:05;12.60;;;4.00;;
57317;SDS011;43157;50.982;18.132;2022-09-09T07:18:35;8.30;;;3.60;;
57317;SDS011;43157;50.982;18.132;2022-09-09T07:21:01;8.30;;;4.10;;
57317;SDS011;43157;50.982;18.132;2022-09-09T07:23:27;7.10;;;3.20;;
57317;SDS011;43157;50.982;18.132;2022-09-09T07:25:53;7.50;;;3.40;;
57317;SDS011;43157;50.982;18.132;2022-09-09T07:28:20;10.40;;;3.70;;
57317;SDS011;43157;50.982;18.132;2022-09-09T07:30:54;8.30;;;3.00;;
57317;SDS011;43157;50.982;18.132;2022-09-09T07:33:28;7.60;;;3.50;;
57317;SDS011;43157;50.982;18.132;2022-09-09T07:36:06;9.20;;;3.80;;
57317;SDS011;43157;50.982;18.132;2022-09-09T07:38:40;9.90;;;3.90;;
57317;SDS011;43157;50.982;18.132;2022-09-09T07:41:07;8.10;;;3.30;;
57317;SDS011;43157;50.982;18.132;2022-09-09T07:43:41;7.50;;;3.20;;
57317;SDS011;43157;50.982;18.132;2022-09-09T07:46:07;6.50;;;3.50;;
57317;SDS011;43157;50.982;18.132;2022-09-09T07:48:34;7.30;;;3.50;;
57317;SDS011;43157;50.982;18.132;2022-09-09T07:51:07;6.90;;;3.20;;
57317;SDS011;43157;50.982;18.132;2022-09-09T07:53:37;8.10;;;3.40;;
57317;SDS011;43157;50.982;18.132;2022-09-09T07:56:10;7.80;;;3.10;;
57317;SDS011;43157;50.982;18.132;2022-09-09T07:58:37;6.80;;;3.30;;
57317;SDS011;43157;50.982;18.132;2022-09-09T08:01:08;6.50;;;2.80;;
57317;SDS011;43157;50.982;18.132;2022-09-09T08:03:38;6.30;;;3.00;;
57317;SDS011;43157;50.982;18.132;2022-09-09T08:06:05;9.30;;;3.20;;
57317;SDS011;43157;50.982;18.132;2022-09-09T08:08:35;7.40;;;2.80;;
57317;SDS011;43157;50.982;18.132;2022-09-09T08:11:02;8.00;;;3.10;;
57317;SDS011;43157;50.982;18.132;2022-09-09T08:13:29;6.50;;;2.90;;
57317;SDS011;43157;50.982;18.132;2022-09-09T08:16:03;5.60;;;2.50;;
57317;SDS011;43157;50.982;18.132;2022-09-09T08:18:30;7.20;;;2.20;;
57317;SDS011;43157;50.982;18.132;2022-09-09T08:20:55;7.20;;;2.60;;
57317;SDS011;43157;50.982;18.132;2022-09-09T08:23:21;6.70;;;2.60;;
57317;SDS011;43157;50.982;18.132;2022-09-09T08:25:47;5.80;;;2.20;;
57317;SDS011;43157;50.982;18.132;2022-09-09T08:28:14;6.00;;;2.10;;
57317;SDS011;43157;50.982;18.132;2022-09-09T08:30:39;4.50;;;2.30;;
57317;SDS011;43157;50.982;18.132;2022-09-09T08:33:05;4.70;;;2.40;;
57317;SDS011;43157;50.982;18.132;2022-09-09T08:35:31;5.70;;;2.90;;
57317;SDS011;43157;50.982;18.132;2022-09-09T08:37:57;5.60;;;2.20;;
57317;SDS011;43157;50.982;18.132;2022-09-09T08:40:26;4.50;;;1.70;;
57317;SDS011;43157;50.982;18.132;2022-09-09T08:42:54;5.40;;;1.90;;
57317;SDS011;43157;50.982;18.132;2022-09-09T08:45:24;5.80;;;1.40;;
57317;SDS011;43157;50.982;18.132;2022-09-09T08:50:38;4.70;;;1.50;;
57317;SDS011;43157;50.982;18.132;2022-09-09T08:56:09;4.70;;;1.70;;
57317;SDS011;43157;50.982;18.132;2022-09-09T08:58:44;8.40;;;2.10;;
57317;SDS011;43157;50.982;18.132;2022-09-09T09:12:10;6.90;;;2.80;;
57317;SDS011;43157;50.982;18.132;2022-09-09T09:14:41;7.10;;;1.80;;
57317;SDS011;43157;50.982;18.132;2022-09-09T09:17:14;6.10;;;1.70;;
57317;SDS011;43157;50.982;18.132;2022-09-09T09:19:47;4.70;;;1.60;;
57317;SDS011;43157;50.982;18.132;2022-09-09T09:25:16;4.60;;;1.40;;
57317;SDS011;43157;50.982;18.132;2022-09-09T09:27:49;5.00;;;1.50;;
57317;SDS011;43157;50.982;18.132;2022-09-09T09:30:34;10.00;;;1.60;;
57317;SDS011;43157;50.982;18.132;2022-09-09T09:35:43;5.20;;;1.70;;
57317;SDS011;43157;50.982;18.132;2022-09-09T09:38:22;5.10;;;1.90;;
57317;SDS011;43157;50.982;18.132;2022-09-09T09:40:57;6.80;;;1.30;;
57317;SDS011;43157;50.982;18.132;2022-09-09T09:43:33;4.60;;;1.50;;
57317;SDS011;43157;50.982;18.132;2022-09-09T09:46:00;6.10;;;1.90;;
57317;SDS011;43157;50.982;18.132;2022-09-09T09:48:26;6.80;;;1.60;;
57317;SDS011;43157;50.982;18.132;2022-09-09T09:51:00;3.80;;;1.30;;
57317;SDS011;43157;50.982;18.132;2022-09-09T09:53:34;7.20;;;1.50;;
57317;SDS011;43157;50.982;18.132;2022-09-09T09:56:05;5.50;;;1.20;;
57317;SDS011;43157;50.982;18.132;2022-09-09T09:58:38;3.70;;;1.20;;
57317;SDS011;43157;50.982;18.132;2022-09-09T10:03:54;3.10;;;1.30;;
57317;SDS011;43157;50.982;18.132;2022-09-09T10:06:29;5.40;;;1.80;;
57317;SDS011;43157;50.982;18.132;2022-09-09T10:09:02;3.10;;;1.30;;
57317;SDS011;43157;50.982;18.132;2022-09-09T10:11:36;3.60;;;1.30;;
57317;SDS011;43157;50.982;18.132;2022-09-09T10:14:21;6.00;;;1.30;;
57317;SDS011;43157;50.982;18.132;2022-09-09T10:16:59;6.50;;;1.50;;
57317;SDS011;43157;50.982;18.132;2022-09-09T10:20:11;4.60;;;1.30;;
57317;SDS011;43157;50.982;18.132;2022-09-09T10:22:46;5.00;;;1.50;;
57317;SDS011;43157;50.982;18.132;2022-09-09T10:36:29;5.20;;;1.70;;
57317;SDS011;43157;50.982;18.132;2022-09-09T10:39:06;3.80;;;1.70;;
57317;SDS011;43157;50.982;18.132;2022-09-09T10:49:52;4.70;;;1.00;;
57317;SDS011;43157;50.982;18.132;2022-09-09T10:52:35;4.10;;;1.40;;
57317;SDS011;43157;50.982;18.132;2022-09-09T10:55:16;3.60;;;1.10;;
57317;SDS011;43157;50.982;18.132;2022-09-09T10:57:47;2.80;;;0.90;;
57317;SDS011;43157;50.982;18.132;2022-09-09T11:00:18;3.80;;;1.00;;
57317;SDS011;43157;50.982;18.132;2022-09-09T11:03:04;2.70;;;0.80;;
57317;SDS011;43157;50.982;18.132;2022-09-09T11:05:30;5.90;;;0.90;;
57317;SDS011;43157;50.982;18.132;2022-09-09T11:08:33;4.80;;;1.10;;
57317;SDS011;43157;50.982;18.132;2022-09-09T11:13:39;3.50;;;0.90;;
57317;SDS011;43157;50.982;18.132;2022-09-09T11:16:14;4.00;;;1.00;;
57317;SDS011;43157;50.982;18.132;2022-09-09T11:19:02;3.90;;;0.90;;
57317;SDS011;43157;50.982;18.132;2022-09-09T11:21:46;6.80;;;1.20;;
57317;SDS011;43157;50.982;18.132;2022-09-09T11:24:15;4.10;;;0.90;;
57317;SDS011;43157;50.982;18.132;2022-09-09T11:26:50;4.30;;;1.00;;
57317;SDS011;43157;50.982;18.132;2022-09-09T11:32:17;5.60;;;0.90;;
57317;SDS011;43157;50.982;18.132;2022-09-09T11:35:24;3.60;;;0.80;;
57317;SDS011;43157;50.982;18.132;2022-09-09T11:37:58;5.40;;;2.20;;
57317;SDS011;43157;50.982;18.132;2022-09-09T11:40:36;6.10;;;0.90;;
57317;SDS011;43157;50.982;18.132;2022-09-09T11:43:03;1.70;;;0.70;;
57317;SDS011;43157;50.982;18.132;2022-09-09T11:45:31;4.60;;;0.80;;
57317;SDS011;43157;50.982;18.132;2022-09-09T11:47:59;2.70;;;0.80;;
57317;SDS011;43157;50.982;18.132;2022-09-09T11:52:51;2.80;;;0.80;;
57317;SDS011;43157;50.982;18.132;2022-09-09T11:58:03;3.60;;;0.80;;
57317;SDS011;43157;50.982;18.132;2022-09-09T12:00:49;2.70;;;0.70;;
57317;SDS011;43157;50.982;18.132;2022-09-09T12:06:14;3.30;;;0.80;;
57317;SDS011;43157;50.982;18.132;2022-09-09T12:08:43;3.80;;;0.90;;
57317;SDS011;43157;50.982;18.132;2022-09-09T12:11:11;3.80;;;0.80;;
57317;SDS011;43157;50.982;18.132;2022-09-09T12:13:37;3.30;;;0.80;;
57317;SDS011;43157;50.982;18.132;2022-09-09T12:16:03;3.80;;;0.80;;
57317;SDS011;43157;50.982;18.132;2022-09-09T12:18:34;3.10;;;0.90;;
57317;SDS011;43157;50.982;18.132;2022-09-09T12:21:10;3.20;;;0.80;;
57317;SDS011;43157;50.982;18.132;2022-09-09T12:23:48;2.90;;;0.80;;
57317;SDS011;43157;50.982;18.132;2022-09-09T12:26:20;3.10;;;0.70;;
57317;SDS011;43157;50.982;18.132;2022-09-09T12:29:09;3.80;;;0.80;;
57317;SDS011;43157;50.982;18.132;2022-09-09T12:31:58;1.30;;;0.60;;
57317;SDS011;43157;50.982;18.132;2022-09-09T12:34:39;2.60;;;0.70;;
57317;SDS011;43157;50.982;18.132;2022-09-09T12:37:17;3.10;;;0.80;;
57317;SDS011;43157;50.982;18.132;2022-09-09T12:40:03;1.90;;;0.60;;
57317;SDS011;43157;50.982;18.132;2022-09-09T12:42:31;3.50;;;0.70;;
57317;SDS011;43157;50.982;18.132;2022-09-09T12:45:02;2.80;;;0.50;;
57317;SDS011;43157;50.982;18.132;2022-09-09T12:47:36;4.20;;;0.80;;
57317;SDS011;43157;50.982;18.132;2022-09-09T12:50:14;3.60;;;0.90;;
57317;SDS011;43157;50.982;18.132;2022-09-09T12:52:45;4.90;;;0.70;;
57317;SDS011;43157;50.982;18.132;2022-09-09T12:55:16;4.80;;;0.80;;
57317;SDS011;43157;50.982;18.132;2022-09-09T12:57:44;2.80;;;0.50;;
57317;SDS011;43157;50.982;18.132;2022-09-09T13:00:15;4.60;;;0.70;;
57317;SDS011;43157;50.982;18.132;2022-09-09T13:02:50;3.90;;;0.70;;
57317;SDS011;43157;50.982;18.132;2022-09-09T13:07:49;4.20;;;0.80;;
57317;SDS011;43157;50.982;18.132;2022-09-09T13:10:20;3.00;;;0.80;;
57317;SDS011;43157;50.982;18.132;2022-09-09T13:12:48;4.10;;;0.70;;
57317;SDS011;43157;50.982;18.132;2022-09-09T13:15:18;4.80;;;0.80;;
57317;SDS011;43157;50.982;18.132;2022-09-09T13:17:51;2.80;;;0.80;;
57317;SDS011;43157;50.982;18.132;2022-09-09T13:20:19;3.70;;;0.70;;
57317;SDS011;43157;50.982;18.132;2022-09-09T13:22:46;4.90;;;1.00;;
57317;SDS011;43157;50.982;18.132;2022-09-09T13:25:18;2.00;;;0.70;;
57317;SDS011;43157;50.982;18.132;2022-09-09T13:27:52;4.30;;;0.80;;
57317;SDS011;43157;50.982;18.132;2022-09-09T13:30:39;3.00;;;0.70;;
57317;SDS011;43157;50.982;18.132;2022-09-09T13:35:46;4.60;;;0.60;;
57317;SDS011;43157;50.982;18.132;2022-09-09T13:38:15;3.80;;;0.70;;
57317;SDS011;43157;50.982;18.132;2022-09-09T13:40:51;4.80;;;0.80;;
57317;SDS011;43157;50.982;18.132;2022-09-09T13:43:21;2.80;;;0.50;;
57317;SDS011;43157;50.982;18.132;2022-09-09T13:46:02;2.10;;;0.30;;
57317;SDS011;43157;50.982;18.132;2022-09-09T13:48:29;6.60;;;0.70;;
57317;SDS011;43157;50.982;18.132;2022-09-09T13:50:58;3.50;;;0.50;;
57317;SDS011;43157;50.982;18.132;2022-09-09T13:53:29;2.20;;;0.50;;
57317;SDS011;43157;50.982;18.132;2022-09-09T13:55:55;3.20;;;0.60;;
57317;SDS011;43157;50.982;18.132;2022-09-09T13:58:22;4.90;;;0.50;;
57317;SDS011;43157;50.982;18.132;2022-09-09T14:00:50;3.90;;;0.60;;
57317;SDS011;43157;50.982;18.132;2022-09-09T14:03:16;4.20;;;0.60;;
57317;SDS011;43157;50.982;18.132;2022-09-09T14:05:43;4.00;;;0.70;;
57317;SDS011;43157;50.982;18.132;2022-09-09T14:08:11;2.00;;;0.50;;
57317;SDS011;43157;50.982;18.132;2022-09-09T14:10:47;2.50;;;0.50;;
57317;SDS011;43157;50.982;18.132;2022-09-09T14:13:12;2.00;;;0.40;;
57317;SDS011;43157;50.982;18.132;2022-09-09T14:15:38;3.00;;;0.60;;
57317;SDS011;43157;50.982;18.132;2022-09-09T14:18:04;3.20;;;0.80;;
57317;SDS011;43157;50.982;18.132;2022-09-09T14:20:30;3.20;;;0.50;;
57317;SDS011;43157;50.982;18.132;2022-09-09T14:22:55;4.40;;;0.60;;
57317;SDS011;43157;50.982;18.132;2022-09-09T14:25:23;4.70;;;0.80;;
57317;SDS011;43157;50.982;18.132;2022-09-09T14:27:50;4.80;;;0.60;;
57317;SDS011;43157;50.982;18.132;2022-09-09T14:30:16;4.30;;;0.80;;
57317;SDS011;43157;50.982;18.132;2022-09-09T14:32:44;5.30;;;1.00;;
57317;SDS011;43157;50.982;18.132;2022-09-09T14:35:09;2.40;;;0.60;;
57317;SDS011;43157;50.982;18.132;2022-09-09T14:37:34;3.70;;;0.60;;
57317;SDS011;43157;50.982;18.132;2022-09-09T14:40:00;3.70;;;0.60;;
57317;SDS011;43157;50.982;18.132;2022-09-09T14:42:26;3.60;;;0.70;;
57317;SDS011;43157;50.982;18.132;2022-09-09T14:44:52;3.80;;;0.70;;
57317;SDS011;43157;50.982;18.132;2022-09-09T14:47:17;3.20;;;0.80;;
57317;SDS011;43157;50.982;18.132;2022-09-09T14:49:43;3.10;;;0.50;;
57317;SDS011;43157;50.982;18.132;2022-09-09T14:52:09;4.30;;;0.70;;
57317;SDS011;43157;50.982;18.132;2022-09-09T14:54:35;5.20;;;0.80;;
57317;SDS011;43157;50.982;18.132;2022-09-09T14:57:00;3.90;;;0.60;;
57317;SDS011;43157;50.982;18.132;2022-09-09T14:59:26;4.70;;;0.90;;
57317;SDS011;43157;50.982;18.132;2022-09-09T15:01:52;7.10;;;0.80;;
57317;SDS011;43157;50.982;18.132;2022-09-09T15:04:18;2.80;;;0.70;;
57317;SDS011;43157;50.982;18.132;2022-09-09T15:06:44;3.30;;;0.70;;
57317;SDS011;43157;50.982;18.132;2022-09-09T15:09:14;2.70;;;0.80;;
57317;SDS011;43157;50.982;18.132;2022-09-09T15:11:40;3.80;;;0.60;;
57317;SDS011;43157;50.982;18.132;2022-09-09T15:14:06;4.40;;;0.70;;
57317;SDS011;43157;50.982;18.132;2022-09-09T15:16:33;3.20;;;0.80;;
57317;SDS011;43157;50.982;18.132;2022-09-09T15:19:00;5.90;;;1.00;;
57317;SDS011;43157;50.982;18.132;2022-09-09T15:21:27;2.30;;;0.60;;
57317;SDS011;43157;50.982;18.132;2022-09-09T15:23:55;2.60;;;0.70;;
57317;SDS011;43157;50.982;18.132;2022-09-09T15:26:22;5.00;;;0.70;;
57317;SDS011;43157;50.982;18.132;2022-09-09T15:28:47;2.50;;;0.60;;
57317;SDS011;43157;50.982;18.132;2022-09-09T15:36:19;4.20;;;1.00;;
57317;SDS011;43157;50.982;18.132;2022-09-09T15:38:47;3.90;;;0.70;;
57317;SDS011;43157;50.982;18.132;2022-09-09T15:41:13;5.60;;;1.00;;
57317;SDS011;43157;50.982;18.132;2022-09-09T15:43:43;3.50;;;0.90;;
57317;SDS011;43157;50.982;18.132;2022-09-09T15:48:41;7.30;;;1.40;;
57317;SDS011;43157;50.982;18.132;2022-09-09T15:51:08;4.50;;;1.20;;
57317;SDS011;43157;50.982;18.132;2022-09-09T15:53:34;5.20;;;1.20;;
57317;SDS011;43157;50.982;18.132;2022-09-09T15:56:00;7.40;;;1.40;;
57317;SDS011;43157;50.982;18.132;2022-09-09T15:58:29;9.90;;;2.40;;
57317;SDS011;43157;50.982;18.132;2022-09-09T16:01:06;10.40;;;3.20;;
57317;SDS011;43157;50.982;18.132;2022-09-09T16:03:34;9.40;;;2.60;;
57317;SDS011;43157;50.982;18.132;2022-09-09T16:06:00;9.20;;;2.60;;
57317;SDS011;43157;50.982;18.132;2022-09-09T16:08:37;7.20;;;1.90;;
57317;SDS011;43157;50.982;18.132;2022-09-09T16:11:08;6.70;;;2.00;;
57317;SDS011;43157;50.982;18.132;2022-09-09T16:13:40;9.20;;;2.00;;
57317;SDS011;43157;50.982;18.132;2022-09-09T16:16:08;7.30;;;1.80;;
57317;SDS011;43157;50.982;18.132;2022-09-09T16:18:42;5.90;;;1.60;;
57317;SDS011;43157;50.982;18.132;2022-09-09T16:21:14;5.10;;;1.50;;
57317;SDS011;43157;50.982;18.132;2022-09-09T16:23:45;7.30;;;2.10;;
57317;SDS011;43157;50.982;18.132;2022-09-09T16:26:11;7.60;;;1.80;;
57317;SDS011;43157;50.982;18.132;2022-09-09T16:28:39;6.40;;;2.10;;
57317;SDS011;43157;50.982;18.132;2022-09-09T16:31:08;9.90;;;1.90;;
57317;SDS011;43157;50.982;18.132;2022-09-09T16:33:39;7.00;;;2.00;;
57317;SDS011;43157;50.982;18.132;2022-09-09T16:36:10;6.80;;;2.10;;
57317;SDS011;43157;50.982;18.132;2022-09-09T16:38:37;5.90;;;1.90;;
57317;SDS011;43157;50.982;18.132;2022-09-09T16:41:04;9.50;;;2.30;;